sensor_id;sensor_type;location;lat;lon;timestamp;pressure;altitude;pressure_sealevel;temperature;humidity
75298;BME280;63896;45.990;18.688;2023-08-17T00:02:06;100859.06;;;19.94;100.00
75298;BME280;63896;45.990;18.688;2023-08-17T00:05:09;100856.06;;;19.85;100.00
75298;BME280;63896;45.990;18.688;2023-08-17T00:08:12;100859.84;;;19.84;100.00
75298;BME280;63896;45.990;18.688;2023-08-17T00:11:15;100864.13;;;19.85;100.00
75298;BME280;63896;45.990;18.688;2023-08-17T00:14:18;100864.13;;;19.85;100.00
75298;BME280;63896;45.990;18.688;2023-08-17T00:17:22;100865.19;;;19.79;100.00
75298;BME280;63896;45.990;18.688;2023-08-17T00:20:25;100879.19;;;19.81;100.00
75298;BME280;63896;45.990;18.688;2023-08-17T00:23:28;100875.13;;;19.74;100.00
75298;BME280;63896;45.990;18.688;2023-08-17T00:26:31;100874.03;;;19.65;100.00
75298;BME280;63896;45.990;18.688;2023-08-17T00:29:35;100875.06;;;19.59;100.00
75298;BME280;63896;45.990;18.688;2023-08-17T00:32:38;100873.94;;;19.49;100.00
75298;BME280;63896;45.990;18.688;2023-08-17T00:35:41;100874.91;;;19.33;100.00
75298;BME280;63896;45.990;18.688;2023-08-17T00:38:44;100874.56;;;19.25;100.00
75298;BME280;63896;45.990;18.688;2023-08-17T00:41:47;100873.72;;;19.19;100.00
75298;BME280;63896;45.990;18.688;2023-08-17T00:44:49;100863.47;;;19.11;100.00
75298;BME280;63896;45.990;18.688;2023-08-17T00:47:56;100868.28;;;19.09;100.00
75298;BME280;63896;45.990;18.688;2023-08-17T00:51:02;100866.34;;;19.04;100.00
75298;BME280;63896;45.990;18.688;2023-08-17T00:54:05;100867.13;;;19.00;100.00
75298;BME280;63896;45.990;18.688;2023-08-17T00:57:08;100866.03;;;18.96;100.00
75298;BME280;63896;45.990;18.688;2023-08-17T01:00:12;100864.13;;;18.91;100.00
75298;BME280;63896;45.990;18.688;2023-08-17T01:03:22;100861.91;;;18.83;100.00
75298;BME280;63896;45.990;18.688;2023-08-17T01:06:25;100861.91;;;18.83;100.00
75298;BME280;63896;45.990;18.688;2023-08-17T01:09:28;100859.97;;;18.79;100.00
75298;BME280;63896;45.990;18.688;2023-08-17T01:12:38;100869.41;;;18.81;100.00
75298;BME280;63896;45.990;18.688;2023-08-17T01:15:56;100859.72;;;18.80;100.00
75298;BME280;63896;45.990;18.688;2023-08-17T01:19:07;100856.75;;;18.82;100.00
75298;BME280;63896;45.990;18.688;2023-08-17T01:22:14;100862.72;;;18.84;100.00
75298;BME280;63896;45.990;18.688;2023-08-17T01:25:20;100854.13;;;18.87;100.00
75298;BME280;63896;45.990;18.688;2023-08-17T01:28:23;100860.13;;;18.99;100.00
75298;BME280;63896;45.990;18.688;2023-08-17T01:31:38;100855.88;;;19.08;100.00
75298;BME280;63896;45.990;18.688;2023-08-17T01:34:57;100855.97;;;19.23;100.00
75298;BME280;63896;45.990;18.688;2023-08-17T01:38:04;100863.03;;;19.29;100.00
75298;BME280;63896;45.990;18.688;2023-08-17T01:41:10;100858.78;;;19.38;100.00
75298;BME280;63896;45.990;18.688;2023-08-17T01:44:18;100855.31;;;19.43;100.00
75298;BME280;63896;45.990;18.688;2023-08-17T01:47:23;100853.19;;;19.45;100.00
75298;BME280;63896;45.990;18.688;2023-08-17T01:50:28;100861.31;;;19.55;100.00
75298;BME280;63896;45.990;18.688;2023-08-17T01:53:30;100847.28;;;19.48;100.00
75298;BME280;63896;45.990;18.688;2023-08-17T01:56:33;100846.75;;;19.51;100.00
75298;BME280;63896;45.990;18.688;2023-08-17T01:59:36;100856.41;;;19.47;100.00
75298;BME280;63896;45.990;18.688;2023-08-17T02:02:39;100854.59;;;19.53;100.00
75298;BME280;63896;45.990;18.688;2023-08-17T02:05:47;100857.31;;;19.58;100.00
75298;BME280;63896;45.990;18.688;2023-08-17T02:08:50;100853.56;;;19.64;100.00
75298;BME280;63896;45.990;18.688;2023-08-17T02:11:56;100854.91;;;19.66;100.00
75298;BME280;63896;45.990;18.688;2023-08-17T02:14:59;100852.00;;;19.73;100.00
75298;BME280;63896;45.990;18.688;2023-08-17T02:18:02;100852.00;;;19.78;100.00
75298;BME280;63896;45.990;18.688;2023-08-17T02:21:05;100849.84;;;19.80;100.00
75298;BME280;63896;45.990;18.688;2023-08-17T02:24:08;100849.31;;;19.83;100.00
75298;BME280;63896;45.990;18.688;2023-08-17T02:27:10;100842.09;;;19.88;100.00
75298;BME280;63896;45.990;18.688;2023-08-17T02:30:13;100828.63;;;19.93;100.00
75298;BME280;63896;45.990;18.688;2023-08-17T02:33:16;100825.91;;;19.93;100.00
75298;BME280;63896;45.990;18.688;2023-08-17T02:36:19;100822.13;;;19.89;100.00
75298;BME280;63896;45.990;18.688;2023-08-17T02:39:22;100817.59;;;19.95;100.00
75298;BME280;63896;45.990;18.688;2023-08-17T02:42:25;100823.00;;;20.00;100.00
75298;BME280;63896;45.990;18.688;2023-08-17T02:45:28;100823.78;;;20.01;100.00
75298;BME280;63896;45.990;18.688;2023-08-17T02:48:33;100827.56;;;20.00;100.00
75298;BME280;63896;45.990;18.688;2023-08-17T02:51:36;100837.56;;;20.04;100.00
75298;BME280;63896;45.990;18.688;2023-08-17T02:54:39;100839.72;;;20.07;100.00
75298;BME280;63896;45.990;18.688;2023-08-17T02:57:42;100830.53;;;20.08;100.00
75298;BME280;63896;45.990;18.688;2023-08-17T03:00:44;100835.59;;;19.84;100.00
75298;BME280;63896;45.990;18.688;2023-08-17T03:03:48;100840.47;;;19.87;100.00
75298;BME280;63896;45.990;18.688;2023-08-17T03:06:51;100842.03;;;19.78;100.00
75298;BME280;63896;45.990;18.688;2023-08-17T03:09:54;100845.84;;;19.87;100.00
75298;BME280;63896;45.990;18.688;2023-08-17T03:12:57;100845.28;;;19.85;100.00
75298;BME280;63896;45.990;18.688;2023-08-17T03:16:00;100838.53;;;19.78;100.00
75298;BME280;63896;45.990;18.688;2023-08-17T03:19:03;100842.53;;;19.70;100.00
75298;BME280;63896;45.990;18.688;2023-08-17T03:22:07;100836.88;;;19.67;100.00
75298;BME280;63896;45.990;18.688;2023-08-17T03:25:10;100835.50;;;19.59;100.00
75298;BME280;63896;45.990;18.688;2023-08-17T03:28:13;100836.34;;;19.70;100.00
75298;BME280;63896;45.990;18.688;2023-08-17T03:31:16;100841.44;;;19.66;100.00
75298;BME280;63896;45.990;18.688;2023-08-17T03:34:19;100840.88;;;19.59;100.00
75298;BME280;63896;45.990;18.688;2023-08-17T03:37:22;100853.00;;;19.57;100.00
75298;BME280;63896;45.990;18.688;2023-08-17T03:40:25;100851.34;;;19.56;100.00
75298;BME280;63896;45.990;18.688;2023-08-17T03:43:28;100860.00;;;19.63;100.00
75298;BME280;63896;45.990;18.688;2023-08-17T03:46:31;100858.41;;;19.67;100.00
75298;BME280;63896;45.990;18.688;2023-08-17T03:49:33;100859.50;;;19.71;100.00
75298;BME280;63896;45.990;18.688;2023-08-17T03:52:36;100856.88;;;19.81;100.00
75298;BME280;63896;45.990;18.688;2023-08-17T03:55:45;100863.81;;;19.72;100.00
75298;BME280;63896;45.990;18.688;2023-08-17T03:58:48;100866.47;;;19.62;100.00
75298;BME280;63896;45.990;18.688;2023-08-17T04:01:51;100870.78;;;19.63;100.00
75298;BME280;63896;45.990;18.688;2023-08-17T04:04:53;100864.81;;;19.56;100.00
75298;BME280;63896;45.990;18.688;2023-08-17T04:07:58;100871.88;;;19.62;100.00
75298;BME280;63896;45.990;18.688;2023-08-17T04:11:05;100864.31;;;19.64;100.00
75298;BME280;63896;45.990;18.688;2023-08-17T04:14:07;100868.84;;;19.58;100.00
75298;BME280;63896;45.990;18.688;2023-08-17T04:17:11;100875.66;;;19.71;100.00
75298;BME280;63896;45.990;18.688;2023-08-17T04:20:14;100887.00;;;19.73;100.00
75298;BME280;63896;45.990;18.688;2023-08-17T04:23:17;100882.91;;;19.65;100.00
75298;BME280;63896;45.990;18.688;2023-08-17T04:26:21;100892.09;;;19.69;100.00
75298;BME280;63896;45.990;18.688;2023-08-17T04:29:24;100890.75;;;19.72;100.00
75298;BME280;63896;45.990;18.688;2023-08-17T04:32:27;100889.94;;;19.71;100.00
75298;BME280;63896;45.990;18.688;2023-08-17T04:35:30;100884.56;;;19.71;100.00
75298;BME280;63896;45.990;18.688;2023-08-17T04:38:33;100892.16;;;19.84;100.00
75298;BME280;63896;45.990;18.688;2023-08-17T04:41:36;100895.63;;;19.80;100.00
75298;BME280;63896;45.990;18.688;2023-08-17T04:44:42;100901.03;;;19.85;100.00
75298;BME280;63896;45.990;18.688;2023-08-17T04:47:45;100902.13;;;19.89;100.00
75298;BME280;63896;45.990;18.688;2023-08-17T04:50:49;100908.81;;;19.81;100.00
75298;BME280;63896;45.990;18.688;2023-08-17T04:53:57;100902.06;;;19.74;100.00
75298;BME280;63896;45.990;18.688;2023-08-17T04:57:00;100905.69;;;20.00;100.00
75298;BME280;63896;45.990;18.688;2023-08-17T05:00:04;100904.03;;;19.88;100.00
75298;BME280;63896;45.990;18.688;2023-08-17T05:03:11;100906.72;;;19.93;100.00
75298;BME280;63896;45.990;18.688;2023-08-17T05:06:30;100911.88;;;20.05;100.00
75298;BME280;63896;45.990;18.688;2023-08-17T05:09:33;100910.13;;;20.31;100.00
75298;BME280;63896;45.990;18.688;2023-08-17T05:12:36;100905.03;;;20.44;100.00
75298;BME280;63896;45.990;18.688;2023-08-17T05:15:39;100899.66;;;20.60;100.00
75298;BME280;63896;45.990;18.688;2023-08-17T05:18:44;100895.38;;;20.89;100.00
75298;BME280;63896;45.990;18.688;2023-08-17T05:21:49;100898.59;;;21.01;100.00
75298;BME280;63896;45.990;18.688;2023-08-17T05:24:54;100896.19;;;20.64;100.00
75298;BME280;63896;45.990;18.688;2023-08-17T05:27:57;100894.84;;;20.77;100.00
75298;BME280;63896;45.990;18.688;2023-08-17T05:31:05;100891.84;;;20.93;100.00
75298;BME280;63896;45.990;18.688;2023-08-17T05:34:11;100888.91;;;21.20;100.00
75298;BME280;63896;45.990;18.688;2023-08-17T05:37:15;100890.22;;;21.43;100.00
75298;BME280;63896;45.990;18.688;2023-08-17T05:40:19;100893.22;;;21.26;100.00
75298;BME280;63896;45.990;18.688;2023-08-17T05:43:22;100894.53;;;21.49;100.00
75298;BME280;63896;45.990;18.688;2023-08-17T05:46:25;100906.31;;;21.78;100.00
75298;BME280;63896;45.990;18.688;2023-08-17T05:49:28;100900.63;;;21.85;100.00
75298;BME280;63896;45.990;18.688;2023-08-17T05:52:31;100896.06;;;21.80;100.00
75298;BME280;63896;45.990;18.688;2023-08-17T05:55:34;100903.41;;;21.70;100.00
75298;BME280;63896;45.990;18.688;2023-08-17T05:58:37;100894.13;;;21.96;100.00
75298;BME280;63896;45.990;18.688;2023-08-17T06:01:40;100901.47;;;22.40;99.01
75298;BME280;63896;45.990;18.688;2023-08-17T06:04:42;100894.25;;;22.74;97.44
75298;BME280;63896;45.990;18.688;2023-08-17T06:07:45;100892.06;;;22.71;95.45
75298;BME280;63896;45.990;18.688;2023-08-17T06:10:48;100894.06;;;22.94;95.12
75298;BME280;63896;45.990;18.688;2023-08-17T06:13:51;100896.03;;;23.46;92.20
75298;BME280;63896;45.990;18.688;2023-08-17T06:16:53;100892.69;;;23.54;90.28
75298;BME280;63896;45.990;18.688;2023-08-17T06:19:56;100892.41;;;24.22;86.80
75298;BME280;63896;45.990;18.688;2023-08-17T06:22:59;100890.88;;;24.53;83.90
75298;BME280;63896;45.990;18.688;2023-08-17T06:26:02;100893.88;;;25.35;79.82
75298;BME280;63896;45.990;18.688;2023-08-17T06:29:05;100890.13;;;25.64;77.85
75298;BME280;63896;45.990;18.688;2023-08-17T06:32:14;100883.25;;;25.66;77.13
75298;BME280;63896;45.990;18.688;2023-08-17T06:35:18;100882.53;;;25.01;79.44
75298;BME280;63896;45.990;18.688;2023-08-17T06:38:21;100879.63;;;24.97;79.66
75298;BME280;63896;45.990;18.688;2023-08-17T06:41:23;100883.00;;;25.22;79.27
75298;BME280;63896;45.990;18.688;2023-08-17T06:44:27;100884.63;;;25.50;79.91
75298;BME280;63896;45.990;18.688;2023-08-17T06:47:44;100873.00;;;26.84;72.51
75298;BME280;63896;45.990;18.688;2023-08-17T06:50:47;100880.78;;;27.53;68.92
75298;BME280;63896;45.990;18.688;2023-08-17T06:53:50;100880.59;;;28.06;65.87
75298;BME280;63896;45.990;18.688;2023-08-17T06:56:53;100889.41;;;26.48;71.52
75298;BME280;63896;45.990;18.688;2023-08-17T07:04:19;100907.09;;;26.82;70.78
75298;BME280;63896;45.990;18.688;2023-08-17T07:07:22;100900.72;;;26.28;72.40
75298;BME280;63896;45.990;18.688;2023-08-17T07:10:26;100916.59;;;25.26;77.65
75298;BME280;63896;45.990;18.688;2023-08-17T07:13:29;100906.91;;;25.06;78.67
75298;BME280;63896;45.990;18.688;2023-08-17T07:16:32;100899.91;;;27.08;70.81
75298;BME280;63896;45.990;18.688;2023-08-17T07:19:35;100903.38;;;28.01;67.65
75298;BME280;63896;45.990;18.688;2023-08-17T07:22:58;100901.00;;;29.11;62.96
75298;BME280;63896;45.990;18.688;2023-08-17T07:26:01;100892.16;;;30.19;58.03
75298;BME280;63896;45.990;18.688;2023-08-17T07:29:04;100898.22;;;30.66;55.75
75298;BME280;63896;45.990;18.688;2023-08-17T07:32:08;100892.09;;;32.08;51.22
75298;BME280;63896;45.990;18.688;2023-08-17T07:35:11;100898.97;;;29.84;56.80
75298;BME280;63896;45.990;18.688;2023-08-17T07:38:14;100909.28;;;29.41;58.94
75298;BME280;63896;45.990;18.688;2023-08-17T07:41:17;100908.28;;;28.47;61.35
75298;BME280;63896;45.990;18.688;2023-08-17T07:44:20;100906.91;;;28.02;63.37
75298;BME280;63896;45.990;18.688;2023-08-17T07:47:23;100904.63;;;28.69;61.30
75298;BME280;63896;45.990;18.688;2023-08-17T07:50:25;100896.50;;;30.41;55.91
75298;BME280;63896;45.990;18.688;2023-08-17T07:53:28;100894.19;;;31.17;52.96
75298;BME280;63896;45.990;18.688;2023-08-17T07:56:31;100900.41;;;31.39;52.64
75298;BME280;63896;45.990;18.688;2023-08-17T07:59:56;100902.94;;;33.12;47.81
75298;BME280;63896;45.990;18.688;2023-08-17T08:03:25;100901.09;;;34.49;43.35
75298;BME280;63896;45.990;18.688;2023-08-17T08:06:27;100887.09;;;34.99;41.73
75298;BME280;63896;45.990;18.688;2023-08-17T08:09:30;100900.44;;;35.62;40.21
75298;BME280;63896;45.990;18.688;2023-08-17T08:12:33;100891.97;;;35.28;40.32
75298;BME280;63896;45.990;18.688;2023-08-17T08:15:36;100901.25;;;33.23;44.89
75298;BME280;63896;45.990;18.688;2023-08-17T08:18:39;100904.09;;;33.58;44.05
75298;BME280;63896;45.990;18.688;2023-08-17T08:21:41;100897.47;;;35.06;40.74
75298;BME280;63896;45.990;18.688;2023-08-17T08:24:44;100893.59;;;34.68;42.09
75298;BME280;63896;45.990;18.688;2023-08-17T08:27:47;100895.56;;;35.29;40.31
75298;BME280;63896;45.990;18.688;2023-08-17T08:30:50;100893.00;;;36.18;37.99
75298;BME280;63896;45.990;18.688;2023-08-17T08:33:53;100892.50;;;35.83;38.91
75298;BME280;63896;45.990;18.688;2023-08-17T08:36:56;100886.78;;;36.58;36.81
75298;BME280;63896;45.990;18.688;2023-08-17T08:39:59;100896.00;;;34.31;41.28
75298;BME280;63896;45.990;18.688;2023-08-17T08:43:02;100888.56;;;36.10;37.83
75298;BME280;63896;45.990;18.688;2023-08-17T08:46:05;100888.38;;;37.37;35.76
75298;BME280;63896;45.990;18.688;2023-08-17T08:49:10;100888.56;;;37.58;34.80
75298;BME280;63896;45.990;18.688;2023-08-17T08:52:22;100878.56;;;36.65;35.92
75298;BME280;63896;45.990;18.688;2023-08-17T08:55:30;100871.06;;;36.66;36.38
75298;BME280;63896;45.990;18.688;2023-08-17T08:58:36;100870.16;;;36.21;37.02
75298;BME280;63896;45.990;18.688;2023-08-17T09:01:39;100874.50;;;37.30;35.39
75298;BME280;63896;45.990;18.688;2023-08-17T09:04:45;100865.88;;;36.27;36.71
75298;BME280;63896;45.990;18.688;2023-08-17T09:07:49;100862.53;;;36.45;36.26
75298;BME280;63896;45.990;18.688;2023-08-17T09:10:53;100873.91;;;37.06;35.42
75298;BME280;63896;45.990;18.688;2023-08-17T09:13:56;100865.81;;;37.93;33.92
75298;BME280;63896;45.990;18.688;2023-08-17T09:16:58;100854.84;;;37.01;36.00
75298;BME280;63896;45.990;18.688;2023-08-17T09:20:01;100850.47;;;37.00;35.33
75298;BME280;63896;45.990;18.688;2023-08-17T09:23:13;100857.91;;;36.56;36.12
75298;BME280;63896;45.990;18.688;2023-08-17T09:26:19;100841.09;;;36.68;35.06
75298;BME280;63896;45.990;18.688;2023-08-17T09:29:22;100842.28;;;37.07;34.80
75298;BME280;63896;45.990;18.688;2023-08-17T09:32:30;100843.63;;;37.89;33.52
75298;BME280;63896;45.990;18.688;2023-08-17T09:35:33;100846.34;;;36.80;34.83
75298;BME280;63896;45.990;18.688;2023-08-17T09:38:36;100848.09;;;37.46;34.44
75298;BME280;63896;45.990;18.688;2023-08-17T09:41:41;100840.84;;;37.28;34.45
75298;BME280;63896;45.990;18.688;2023-08-17T09:44:45;100833.66;;;36.75;35.62
75298;BME280;63896;45.990;18.688;2023-08-17T09:47:48;100830.19;;;36.49;36.40
75298;BME280;63896;45.990;18.688;2023-08-17T09:50:51;100837.50;;;37.52;33.86
75298;BME280;63896;45.990;18.688;2023-08-17T09:53:54;100832.94;;;37.26;34.75
75298;BME280;63896;45.990;18.688;2023-08-17T09:57:01;100830.75;;;38.25;32.84
75298;BME280;63896;45.990;18.688;2023-08-17T10:00:05;100823.53;;;37.38;34.74
75298;BME280;63896;45.990;18.688;2023-08-17T10:03:10;100822.13;;;38.44;32.62
75298;BME280;63896;45.990;18.688;2023-08-17T10:06:17;100814.31;;;38.89;31.67
75298;BME280;63896;45.990;18.688;2023-08-17T10:09:31;100820.25;;;38.91;31.98
75298;BME280;63896;45.990;18.688;2023-08-17T10:12:44;100809.94;;;39.20;31.13
75298;BME280;63896;45.990;18.688;2023-08-17T10:15:53;100815.16;;;37.31;33.95
75298;BME280;63896;45.990;18.688;2023-08-17T10:19:06;100807.09;;;38.70;31.94
75298;BME280;63896;45.990;18.688;2023-08-17T10:22:27;100805.75;;;36.95;34.70
75298;BME280;63896;45.990;18.688;2023-08-17T10:25:33;100803.84;;;37.02;34.51
75298;BME280;63896;45.990;18.688;2023-08-17T10:28:37;100805.50;;;36.66;35.22
75298;BME280;63896;45.990;18.688;2023-08-17T10:31:43;100812.06;;;34.90;38.06
75298;BME280;63896;45.990;18.688;2023-08-17T10:34:47;100808.56;;;36.98;34.26
75298;BME280;63896;45.990;18.688;2023-08-17T10:37:50;100810.47;;;37.38;33.15
75298;BME280;63896;45.990;18.688;2023-08-17T10:41:11;100812.28;;;37.16;33.72
75298;BME280;63896;45.990;18.688;2023-08-17T10:44:43;100807.47;;;38.47;31.68
75298;BME280;63896;45.990;18.688;2023-08-17T10:47:46;100802.75;;;39.47;30.32
75298;BME280;63896;45.990;18.688;2023-08-17T10:51:03;100794.81;;;40.57;28.39
75298;BME280;63896;45.990;18.688;2023-08-17T10:54:06;100798.44;;;38.86;30.58
75298;BME280;63896;45.990;18.688;2023-08-17T11:00:40;100799.19;;;37.61;32.90
75298;BME280;63896;45.990;18.688;2023-08-17T11:03:44;100796.88;;;34.77;38.17
75298;BME280;63896;45.990;18.688;2023-08-17T11:07:00;100795.31;;;36.78;35.18
75298;BME280;63896;45.990;18.688;2023-08-17T11:13:22;100775.41;;;39.45;30.30
75298;BME280;63896;45.990;18.688;2023-08-17T11:16:26;100786.00;;;38.23;31.42
75298;BME280;63896;45.990;18.688;2023-08-17T11:19:29;100786.44;;;36.58;34.17
75298;BME280;63896;45.990;18.688;2023-08-17T11:22:32;100784.41;;;38.15;32.75
75298;BME280;63896;45.990;18.688;2023-08-17T11:25:36;100777.78;;;38.80;30.94
75298;BME280;63896;45.990;18.688;2023-08-17T11:28:39;100774.72;;;40.21;28.86
75298;BME280;63896;45.990;18.688;2023-08-17T11:31:45;100780.97;;;39.14;29.86
75298;BME280;63896;45.990;18.688;2023-08-17T11:34:52;100773.44;;;39.21;29.74
75298;BME280;63896;45.990;18.688;2023-08-17T11:38:02;100784.94;;;39.05;30.23
75298;BME280;63896;45.990;18.688;2023-08-17T11:41:10;100779.81;;;39.00;30.53
75298;BME280;63896;45.990;18.688;2023-08-17T11:44:20;100770.84;;;37.27;32.59
75298;BME280;63896;45.990;18.688;2023-08-17T11:47:26;100767.53;;;37.65;32.64
75298;BME280;63896;45.990;18.688;2023-08-17T11:50:34;100767.97;;;37.78;31.64
75298;BME280;63896;45.990;18.688;2023-08-17T11:53:41;100769.16;;;37.15;32.46
75298;BME280;63896;45.990;18.688;2023-08-17T11:56:50;100764.88;;;37.90;31.47
75298;BME280;63896;45.990;18.688;2023-08-17T11:59:54;100769.06;;;38.60;30.06
75298;BME280;63896;45.990;18.688;2023-08-17T12:02:57;100773.41;;;36.21;33.51
75298;BME280;63896;45.990;18.688;2023-08-17T12:06:00;100775.28;;;38.14;30.49
75298;BME280;63896;45.990;18.688;2023-08-17T12:09:04;100767.50;;;39.16;29.46
75298;BME280;63896;45.990;18.688;2023-08-17T12:12:07;100763.81;;;39.75;28.41
75298;BME280;63896;45.990;18.688;2023-08-17T12:15:11;100769.00;;;37.45;31.87
75298;BME280;63896;45.990;18.688;2023-08-17T12:18:15;100763.56;;;38.95;30.19
75298;BME280;63896;45.990;18.688;2023-08-17T12:21:24;100761.28;;;37.86;31.60
75298;BME280;63896;45.990;18.688;2023-08-17T12:24:28;100752.38;;;39.41;28.88
75298;BME280;63896;45.990;18.688;2023-08-17T12:27:32;100760.69;;;36.54;33.47
75298;BME280;63896;45.990;18.688;2023-08-17T12:30:35;100755.38;;;36.01;33.50
75298;BME280;63896;45.990;18.688;2023-08-17T12:33:39;100747.00;;;35.94;34.68
75298;BME280;63896;45.990;18.688;2023-08-17T12:36:43;100738.75;;;37.88;31.77
75298;BME280;63896;45.990;18.688;2023-08-17T12:39:47;100729.00;;;39.14;29.07
75298;BME280;63896;45.990;18.688;2023-08-17T12:42:50;100735.25;;;39.71;28.36
75298;BME280;63896;45.990;18.688;2023-08-17T12:45:53;100721.94;;;38.88;30.16
75298;BME280;63896;45.990;18.688;2023-08-17T12:48:55;100730.59;;;39.19;28.26
75298;BME280;63896;45.990;18.688;2023-08-17T12:51:58;100727.41;;;39.24;27.82
75298;BME280;63896;45.990;18.688;2023-08-17T12:55:01;100719.81;;;39.52;27.05
75298;BME280;63896;45.990;18.688;2023-08-17T12:58:08;100717.69;;;40.54;27.29
75298;BME280;63896;45.990;18.688;2023-08-17T13:01:12;100711.63;;;38.89;29.17
75298;BME280;63896;45.990;18.688;2023-08-17T13:04:16;100706.44;;;38.98;29.46
75298;BME280;63896;45.990;18.688;2023-08-17T13:07:19;100711.53;;;38.25;30.26
75298;BME280;63896;45.990;18.688;2023-08-17T13:10:22;100710.00;;;38.56;30.42
75298;BME280;63896;45.990;18.688;2023-08-17T13:13:24;100710.09;;;37.55;30.39
75298;BME280;63896;45.990;18.688;2023-08-17T13:16:27;100703.22;;;38.29;30.07
75298;BME280;63896;45.990;18.688;2023-08-17T13:19:30;100703.34;;;35.73;33.59
75298;BME280;63896;45.990;18.688;2023-08-17T13:22:33;100704.97;;;36.48;31.93
75298;BME280;63896;45.990;18.688;2023-08-17T13:25:36;100688.13;;;38.08;30.27
75298;BME280;63896;45.990;18.688;2023-08-17T13:28:39;100699.69;;;38.74;28.96
75298;BME280;63896;45.990;18.688;2023-08-17T13:31:42;100694.94;;;38.71;28.83
75298;BME280;63896;45.990;18.688;2023-08-17T13:34:44;100690.09;;;37.97;29.94
75298;BME280;63896;45.990;18.688;2023-08-17T13:37:56;100697.88;;;36.10;32.22
75298;BME280;63896;45.990;18.688;2023-08-17T13:41:00;100706.09;;;35.14;34.31
75298;BME280;63896;45.990;18.688;2023-08-17T13:44:03;100688.22;;;35.34;34.88
75298;BME280;63896;45.990;18.688;2023-08-17T13:47:06;100681.16;;;35.36;33.33
75298;BME280;63896;45.990;18.688;2023-08-17T13:50:11;100684.31;;;36.83;31.33
75298;BME280;63896;45.990;18.688;2023-08-17T13:53:13;100680.94;;;37.83;30.36
75298;BME280;63896;45.990;18.688;2023-08-17T13:56:16;100670.31;;;38.09;29.49
75298;BME280;63896;45.990;18.688;2023-08-17T13:59:19;100676.31;;;36.70;30.87
75298;BME280;63896;45.990;18.688;2023-08-17T14:02:22;100668.38;;;34.27;33.75
75298;BME280;63896;45.990;18.688;2023-08-17T14:05:25;100669.09;;;34.47;32.91
75298;BME280;63896;45.990;18.688;2023-08-17T14:08:28;100665.50;;;33.62;34.22
75298;BME280;63896;45.990;18.688;2023-08-17T14:11:31;100666.63;;;33.77;33.59
75298;BME280;63896;45.990;18.688;2023-08-17T14:14:34;100664.97;;;33.37;34.37
75298;BME280;63896;45.990;18.688;2023-08-17T14:17:36;100670.25;;;32.76;35.80
75298;BME280;63896;45.990;18.688;2023-08-17T14:20:39;100675.03;;;32.32;36.82
75298;BME280;63896;45.990;18.688;2023-08-17T14:23:42;100675.28;;;32.58;36.79
75298;BME280;63896;45.990;18.688;2023-08-17T14:26:45;100670.66;;;33.10;36.25
75298;BME280;63896;45.990;18.688;2023-08-17T14:29:48;100670.84;;;32.38;37.96
75298;BME280;63896;45.990;18.688;2023-08-17T14:32:51;100665.63;;;31.90;39.57
75298;BME280;63896;45.990;18.688;2023-08-17T14:35:53;100670.84;;;31.15;41.28
75298;BME280;63896;45.990;18.688;2023-08-17T14:38:56;100672.63;;;31.47;41.56
75298;BME280;63896;45.990;18.688;2023-08-17T14:41:59;100671.97;;;31.78;40.73
75298;BME280;63896;45.990;18.688;2023-08-17T14:45:02;100674.72;;;31.14;42.46
75298;BME280;63896;45.990;18.688;2023-08-17T14:48:09;100668.44;;;30.65;43.95
75298;BME280;63896;45.990;18.688;2023-08-17T14:51:12;100668.44;;;30.08;46.27
75298;BME280;63896;45.990;18.688;2023-08-17T14:54:15;100669.41;;;30.36;46.11
75298;BME280;63896;45.990;18.688;2023-08-17T14:57:17;100671.88;;;30.17;46.66
75298;BME280;63896;45.990;18.688;2023-08-17T15:00:20;100668.28;;;29.92;44.48
75298;BME280;63896;45.990;18.688;2023-08-17T15:03:23;100666.03;;;30.06;45.17
75298;BME280;63896;45.990;18.688;2023-08-17T15:06:26;100662.16;;;30.64;42.88
75298;BME280;63896;45.990;18.688;2023-08-17T15:09:37;100667.06;;;30.59;42.26
75298;BME280;63896;45.990;18.688;2023-08-17T15:12:40;100669.06;;;30.38;42.48
75298;BME280;63896;45.990;18.688;2023-08-17T15:15:42;100659.09;;;30.54;41.56
75298;BME280;63896;45.990;18.688;2023-08-17T15:18:45;100654.97;;;30.72;41.50
75298;BME280;63896;45.990;18.688;2023-08-17T15:21:48;100646.66;;;31.05;41.00
75298;BME280;63896;45.990;18.688;2023-08-17T15:24:51;100639.34;;;30.72;41.10
75298;BME280;63896;45.990;18.688;2023-08-17T15:27:54;100635.91;;;30.76;40.80
75298;BME280;63896;45.990;18.688;2023-08-17T15:31:01;100638.50;;;30.48;43.39
75298;BME280;63896;45.990;18.688;2023-08-17T15:34:05;100633.00;;;30.36;44.21
75298;BME280;63896;45.990;18.688;2023-08-17T15:37:07;100632.47;;;30.66;43.98
75298;BME280;63896;45.990;18.688;2023-08-17T15:40:10;100626.50;;;30.40;44.48
75298;BME280;63896;45.990;18.688;2023-08-17T15:43:14;100626.84;;;30.39;44.46
75298;BME280;63896;45.990;18.688;2023-08-17T15:46:16;100628.56;;;30.43;43.66
75298;BME280;63896;45.990;18.688;2023-08-17T15:49:19;100626.22;;;30.54;43.87
75298;BME280;63896;45.990;18.688;2023-08-17T15:52:22;100625.97;;;30.47;43.11
75298;BME280;63896;45.990;18.688;2023-08-17T15:55:25;100622.34;;;30.10;45.03
75298;BME280;63896;45.990;18.688;2023-08-17T15:58:28;100617.81;;;30.26;43.67